Time;durP1;ratioP1;P1;durP2;ratioP2;P2;SDS_P1;SDS_P2;PMS_P1;PMS_P2;Temp;Humidity;BMP_temperature;BMP_pressure;BME280_temperature;BME280_humidity;BME280_pressure;Samples;Min_cycle;Max_cycle;Signal;HPM_P1;HPM_P2
2023/05/09 00:00:48;;;;;;;10.48;8.00;;;;;;;15.41;100.00;101214.41;7792007;18;20002;-69
2023/05/09 00:03:14;;;;;;;8.60;7.90;;;;;;;15.70;100.00;101260.16;7798257;18;20005;-69
2023/05/09 00:05:41;;;;;;;8.82;7.90;;;;;;;15.37;100.00;101207.63;7794116;18;20014;-69
2023/05/09 00:08:08;;;;;;;8.85;8.02;;;;;;;15.33;100.00;101207.00;7840456;18;20009;-69
2023/05/09 00:10:34;;;;;;;10.02;8.82;;;;;;;15.51;100.00;101252.53;7793132;18;20624;-69
2023/05/09 00:13:01;;;;;;;8.90;7.93;;;;;;;15.54;100.00;101256.81;7840589;18;20351;-69
2023/05/09 00:15:27;;;;;;;10.80;8.45;;;;;;;15.36;100.00;101230.59;7793273;18;20014;-69
2023/05/09 00:17:54;;;;;;;9.63;8.63;;;;;;;15.47;100.00;101266.91;7840927;18;20002;-69
2023/05/09 00:20:20;;;;;;;8.88;7.97;;;;;;;15.54;100.00;101260.31;7793275;18;20474;-69
2023/05/09 00:22:47;;;;;;;24.48;8.65;;;;;;;15.59;100.00;101260.00;7839789;18;19997;-69
2023/05/09 00:25:13;;;;;;;8.93;8.13;;;;;;;15.24;100.00;101183.78;7751349;18;20022;-69
2023/05/09 00:27:40;;;;;;;11.68;8.80;;;;;;;15.69;100.00;101252.31;7795995;18;20071;-70
2023/05/09 00:30:10;;;;;;;9.35;8.45;;;;;;;15.31;100.00;101198.28;7791869;18;20443;-70
2023/05/09 00:32:39;;;;;;;9.13;8.23;;;;;;;15.69;100.00;101249.66;7799193;18;20001;-69
2023/05/09 00:35:06;;;;;;;8.80;7.97;;;;;;;15.71;100.00;101239.84;7793459;18;20007;-69
2023/05/09 00:37:33;;;;;;;9.00;7.55;;;;;;;15.31;100.00;101181.56;7800077;18;20017;-69
2023/05/09 00:39:59;;;;;;;13.88;7.97;;;;;;;15.66;100.00;101236.66;7751486;18;20006;-69
2023/05/09 00:42:26;;;;;;;8.98;8.07;;;;;;;15.40;100.00;101207.44;7840538;18;20100;-69
2023/05/09 00:44:52;;;;;;;8.45;7.65;;;;;;;15.68;100.00;101232.13;7792382;18;20065;-69
2023/05/09 00:47:21;;;;;;;9.60;8.52;;;;;;;15.29;100.00;101164.97;7840238;18;19997;-70
2023/05/09 00:49:48;;;;;;;9.75;8.25;;;;;;;15.77;100.00;101247.41;7792945;18;20014;-69
2023/05/09 00:52:16;;;;;;;10.48;8.25;;;;;;;15.79;100.00;101234.91;7799639;18;20073;-69
2023/05/09 00:54:42;;;;;;;9.55;8.50;;;;;;;15.83;100.00;101225.81;7798106;18;20003;-69
2023/05/09 00:57:09;;;;;;;9.18;8.20;;;;;;;15.86;100.00;101236.22;7799786;18;20331;-69
2023/05/09 00:59:36;;;;;;;8.65;7.85;;;;;;;15.74;100.00;101208.78;7789433;18;20418;-69
2023/05/09 01:02:02;;;;;;;10.38;8.27;;;;;;;15.74;100.00;101195.53;7793195;18;20010;-69
2023/05/09 01:04:29;;;;;;;12.15;8.75;;;;;;;15.92;100.00;101217.28;7833985;18;20017;-69
2023/05/09 01:07:05;;;;;;;10.02;8.93;;;;;;;15.93;100.00;101224.25;7838828;18;19998;-67
2023/05/09 01:09:36;;;;;;;11.13;8.93;;;;;;;15.92;100.00;101213.81;7797577;18;20009;-68
2023/05/09 01:12:21;;;;;;;10.80;8.90;;;;;;;15.94;100.00;101211.91;7840081;18;20011;-68
2023/05/09 01:14:57;;;;;;;10.23;8.98;;;;;;;15.93;100.00;101215.47;7791590;18;20454;-68
2023/05/09 01:17:44;;;;;;;10.75;8.50;;;;;;;15.94;100.00;101212.75;7794651;18;20062;-68
2023/05/09 01:20:17;;;;;;;10.05;8.85;;;;;;;15.95;100.00;101218.88;7840642;18;20068;-67
2023/05/09 01:22:47;;;;;;;;;;;;;;;15.94;100.00;101206.59;7791265;18;20013;-67
2023/05/09 01:25:41;;;;;;;10.85;9.05;;;;;;;15.70;100.00;101174.66;7792571;18;19903;-67
2023/05/09 01:28:37;;;;;;;11.85;9.70;;;;;;;15.93;100.00;101211.03;7790397;18;20002;-68
2023/05/09 01:31:04;;;;;;;12.32;8.55;;;;;;;15.94;100.00;101212.75;7791592;18;20002;-68
2023/05/09 01:33:35;;;;;;;11.32;9.05;;;;;;;15.93;100.00;101199.59;7790081;18;20078;-68
2023/05/09 01:36:06;;;;;;;12.10;9.30;;;;;;;14.69;100.00;101013.75;7750755;18;20002;-68
2023/05/09 01:38:36;;;;;;;12.47;9.20;;;;;;;15.75;100.00;101188.44;7789342;18;20069;-68
2023/05/09 01:41:07;;;;;;;11.27;9.77;;;;;;;15.88;100.00;101202.56;7792299;18;20614;-68
2023/05/09 01:43:35;;;;;;;13.30;9.25;;;;;;;15.88;100.00;101205.22;7794633;18;20002;-68
2023/05/09 01:46:05;;;;;;;19.88;18.17;;;;;;;15.89;100.00;101198.94;7688006;18;20501;-68
2023/05/09 01:48:42;;;;;;;14.60;9.70;;;;;;;15.75;100.00;101185.78;7779920;18;20392;-68
2023/05/09 01:51:09;;;;;;;12.65;9.45;;;;;;;15.45;100.00;101133.91;7750430;18;20060;-68
2023/05/09 01:53:36;;;;;;;12.25;9.43;;;;;;;15.87;100.00;101200.84;7791747;18;20060;-68
2023/05/09 01:56:05;;;;;;;11.45;9.98;;;;;;;15.88;100.00;101199.91;7791701;18;20002;-67
2023/05/09 01:58:35;;;;;;;16.40;9.55;;;;;;;15.79;100.00;101191.75;7790684;18;20011;-68
2023/05/09 02:01:02;;;;;;;13.63;9.75;;;;;;;15.85;100.00;101199.28;7792365;18;20010;-68
2023/05/09 02:03:30;;;;;;;16.23;10.52;;;;;;;15.84;100.00;101201.06;7791640;18;20002;-68
2023/05/09 02:05:57;;;;;;;13.48;10.07;;;;;;;15.85;100.00;101196.63;7792506;18;19994;-67
2023/05/09 02:08:25;;;;;;;14.23;10.10;;;;;;;15.68;100.00;101180.03;7790894;18;20010;-68
2023/05/09 02:10:52;;;;;;;19.65;9.70;;;;;;;15.67;100.00;101167.75;7744988;18;19994;-68
2023/05/09 02:13:18;;;;;;;15.07;10.25;;;;;;;15.51;100.00;101136.16;7790903;18;20014;-68
2023/05/09 02:15:46;;;;;;;16.85;10.18;;;;;;;15.63;100.00;101174.19;7791953;18;20627;-68
2023/05/09 02:18:12;;;;;;;16.30;10.27;;;;;;;15.54;100.00;101151.00;7790042;18;20002;-68
2023/05/09 02:20:39;;;;;;;22.27;10.05;;;;;;;15.36;100.00;101126.59;7792310;18;20644;-68
2023/05/09 02:23:05;;;;;;;15.70;10.32;;;;;;;15.67;100.00;101188.06;7788217;18;20018;-68
2023/05/09 02:25:33;;;;;;;13.50;10.05;;;;;;;15.72;100.00;101189.50;7792951;18;20009;-68
2023/05/09 02:28:01;;;;;;;12.82;10.32;;;;;;;15.68;100.00;101184.50;7791868;18;20005;-68
2023/05/09 02:30:35;;;;;;;19.00;11.52;;;;;;;15.74;100.00;101192.06;7790779;18;20021;-68
2023/05/09 02:33:06;;;;;;;13.40;10.00;;;;;;;15.61;100.00;101178.72;7791127;18;20065;-68
2023/05/09 02:35:34;;;;;;;12.80;9.68;;;;;;;15.77;100.00;101204.22;7791896;18;20006;-68
2023/05/09 02:38:01;;;;;;;16.08;10.35;;;;;;;15.76;100.00;101195.44;7788506;18;19998;-68
2023/05/09 02:40:32;;;;;;;13.70;10.05;;;;;;;15.75;100.00;101188.44;7790400;18;19994;-68
2023/05/09 02:42:59;;;;;;;19.17;10.98;;;;;;;15.24;100.00;101114.19;7790705;18;19998;-69
2023/05/09 02:45:25;;;;;;;17.10;9.75;;;;;;;15.68;100.00;101184.50;7749980;18;19994;-68
2023/05/09 02:47:52;;;;;;;17.10;11.25;;;;;;;15.72;100.00;101185.97;7792042;18;20057;-68
2023/05/09 02:50:18;;;;;;;18.40;10.35;;;;;;;15.63;100.00;101173.34;7793008;18;20073;-69
2023/05/09 02:52:45;;;;;;;16.02;10.45;;;;;;;15.67;100.00;101170.38;7798944;18;20668;-69
2023/05/09 02:55:12;;;;;;;13.48;10.27;;;;;;;15.73;100.00;101174.47;7794354;18;19998;-68
2023/05/09 02:57:38;;;;;;;17.27;10.27;;;;;;;15.72;100.00;101175.41;7793117;18;20010;-68
2023/05/09 03:00:09;;;;;;;13.98;10.00;;;;;;;15.66;100.00;101171.34;7792316;18;20012;-68
2023/05/09 03:02:36;;;;;;;20.90;11.85;;;;;;;15.66;100.00;101174.00;7789185;18;20053;-68
2023/05/09 03:05:03;;;;;;;12.65;10.23;;;;;;;15.49;100.00;101153.09;7791664;18;20070;-68
2023/05/09 03:07:29;;;;;;;16.25;11.50;;;;;;;15.56;100.00;101157.88;7788555;18;20482;-68
2023/05/09 03:09:56;;;;;;;16.50;10.27;;;;;;;15.48;100.00;101157.53;7791793;18;20438;-69
2023/05/09 03:12:22;;;;;;;16.75;9.75;;;;;;;15.64;100.00;101172.41;7790888;18;20490;-68
2023/05/09 03:14:49;;;;;;;14.15;9.88;;;;;;;15.64;100.00;101177.69;7790889;18;20003;-68
2023/05/09 03:17:20;;;;;;;17.88;10.52;;;;;;;15.51;100.00;101159.97;7790440;18;20079;-68
2023/05/09 03:19:47;;;;;;;19.00;10.02;;;;;;;15.68;100.00;101181.84;7748342;18;19997;-69
2023/05/09 03:22:14;;;;;;;14.32;10.32;;;;;;;15.35;100.00;101131.06;7789564;18;20073;-69
2023/05/09 03:24:41;;;;;;;16.23;9.95;;;;;;;15.35;100.00;101130.19;7789068;18;20013;-69
2023/05/09 03:27:07;;;;;;;13.77;10.07;;;;;;;15.65;100.00;101176.72;7790174;18;20387;-68
2023/05/09 03:29:33;;;;;;;15.20;10.50;;;;;;;15.66;100.00;101170.50;7832033;18;19993;-69
2023/05/09 03:32:00;;;;;;;14.55;10.15;;;;;;;15.42;100.00;101135.94;7837479;18;20458;-68
2023/05/09 03:34:26;;;;;;;13.32;10.68;;;;;;;15.58;100.00;101168.38;7795011;18;19994;-68
2023/05/09 03:36:53;;;;;;;19.52;11.25;;;;;;;15.23;100.00;101115.13;7792500;18;20352;-68
2023/05/09 03:39:19;;;;;;;22.73;10.90;;;;;;;15.26;100.00;101122.88;7831241;18;20006;-68
2023/05/09 03:41:46;;;;;;;16.83;10.75;;;;;;;15.26;100.00;101122.88;7842344;18;19993;-68
2023/05/09 03:44:12;;;;;;;20.52;10.90;;;;;;;15.06;100.00;101098.56;7803340;18;19998;-70
2023/05/09 03:46:39;;;;;;;18.17;10.75;;;;;;;15.41;100.00;101155.38;7794333;18;20007;-68
2023/05/09 03:49:05;;;;;;;17.17;9.45;;;;;;;15.14;100.00;101109.47;7827162;18;20005;-67
2023/05/09 03:51:32;;;;;;;17.00;11.25;;;;;;;15.15;100.00;101113.84;7841100;18;20524;-68
2023/05/09 03:53:58;;;;;;;14.75;10.18;;;;;;;15.47;100.00;101150.53;7798241;18;20024;-68
2023/05/09 03:56:25;;;;;;;15.20;10.88;;;;;;;14.95;100.00;101071.97;7839385;18;20025;-67
2023/05/09 03:58:52;;;;;;;17.65;10.85;;;;;;;14.99;100.00;101078.75;7808302;18;20538;-68
2023/05/09 04:01:18;;;;;;;16.95;10.13;;;;;;;15.37;100.00;101144.16;7788745;18;20008;-68
2023/05/09 04:03:44;;;;;;;16.35;11.82;;;;;;;13.21;100.00;100778.50;7819804;18;20520;-67
2023/05/09 04:06:11;;;;;;;19.30;10.90;;;;;;;15.35;100.00;101135.47;7798269;18;20063;-68
2023/05/09 04:08:38;;;;;;;13.40;9.80;;;;;;;15.32;100.00;101136.53;7811447;18;20002;-70
2023/05/09 04:11:04;;;;;;;19.15;11.38;;;;;;;15.00;100.00;101098.13;7790857;18;20022;-70
2023/05/09 04:13:32;;;;;;;13.48;10.13;;;;;;;14.68;100.00;101040.25;7815583;18;20006;-70
2023/05/09 04:15:59;;;;;;;14.73;10.90;;;;;;;14.94;100.00;101089.63;7840013;18;20466;-69
2023/05/09 04:18:25;;;;;;;13.65;10.05;;;;;;;14.80;100.00;101063.25;7816570;18;20372;-70
2023/05/09 04:20:52;;;;;;;12.93;10.45;;;;;;;15.22;100.00;101113.44;7789331;18;19994;-70
2023/05/09 04:23:18;;;;;;;14.15;10.73;;;;;;;14.36;100.00;100980.56;7809647;18;20577;-70
2023/05/09 04:25:45;;;;;;;12.93;10.05;;;;;;;15.17;100.00;101111.06;7836082;18;19997;-70
2023/05/09 04:28:11;;;;;;;13.63;9.82;;;;;;;14.70;100.00;101041.84;7821745;18;20031;-70
2023/05/09 04:30:38;;;;;;;13.77;10.02;;;;;;;14.89;100.00;101072.34;7787898;18;20474;-70
2023/05/09 04:33:04;;;;;;;19.98;10.38;;;;;;;14.96;100.00;101090.38;7795688;18;20741;-70
2023/05/09 04:35:31;;;;;;;14.93;9.43;;;;;;;14.01;100.00;100937.94;7838863;18;20418;-70
2023/05/09 04:37:57;;;;;;;13.35;10.63;;;;;;;15.07;100.00;101108.16;7825871;18;20485;-70
2023/05/09 04:40:23;;;;;;;15.15;11.02;;;;;;;14.87;100.00;101095.41;7790110;18;19998;-70
2023/05/09 04:42:52;;;;;;;14.57;10.55;;;;;;;15.02;100.00;101110.28;7802418;18;20070;-70
2023/05/09 04:45:19;;;;;;;13.85;10.82;;;;;;;15.00;100.00;101114.81;7796961;18;20026;-70
2023/05/09 04:47:45;;;;;;;13.05;10.90;;;;;;;15.00;100.00;101113.97;7830605;18;20004;-70
2023/05/09 04:50:12;;;;;;;12.45;10.68;;;;;;;14.99;100.00;101113.09;7791356;18;19998;-70
2023/05/09 04:52:38;;;;;;;15.82;10.43;;;;;;;14.70;100.00;101062.13;7834961;18;20459;-70
2023/05/09 04:55:05;;;;;;;14.20;10.50;;;;;;;15.06;100.00;101103.00;7840179;18;20265;-70
2023/05/09 04:57:32;;;;;;;15.35;11.27;;;;;;;14.74;100.00;101037.22;7835176;18;19998;-71
2023/05/09 04:59:58;;;;;;;14.75;10.73;;;;;;;14.62;100.00;101008.94;7792176;18;19998;-72
2023/05/09 05:02:25;;;;;;;12.80;9.70;;;;;;;14.79;100.00;101021.91;7793606;18;20030;-69
2023/05/09 05:04:51;;;;;;;12.18;10.05;;;;;;;15.43;100.00;101101.44;7839453;18;20038;-69
2023/05/09 05:07:25;;;;;;;12.50;9.70;;;;;;;14.95;100.00;101022.63;7837715;18;19994;-69
2023/05/09 05:09:51;;;;;;;14.73;10.45;;;;;;;15.56;100.00;101110.25;7798541;18;20068;-69
2023/05/09 05:12:18;;;;;;;17.42;11.25;;;;;;;15.62;100.00;101116.09;7792234;18;20025;-72
2023/05/09 05:14:44;;;;;;;12.63;9.90;;;;;;;15.66;100.00;101102.56;7838632;18;20021;-69
2023/05/09 05:17:11;;;;;;;15.52;10.38;;;;;;;15.53;100.00;101073.41;7839586;18;20021;-69
2023/05/09 05:19:37;;;;;;;15.43;11.60;;;;;;;15.33;100.00;101036.88;7788729;18;20013;-70
2023/05/09 05:22:04;;;;;;;11.90;9.85;;;;;;;15.83;100.00;101096.13;7791700;18;20060;-72
2023/05/09 05:24:30;;;;;;;11.73;10.35;;;;;;;15.66;100.00;101077.91;7791915;18;20092;-72
2023/05/09 05:26:57;;;;;;;15.38;11.35;;;;;;;15.47;100.00;101065.88;7790788;18;20013;-72
2023/05/09 05:29:25;;;;;;;13.25;10.70;;;;;;;15.81;100.00;101087.47;7790762;18;20025;-69
2023/05/09 05:31:51;;;;;;;15.68;10.75;;;;;;;15.80;100.00;101077.00;7789606;18;20010;-70
2023/05/09 05:34:18;;;;;;;12.35;10.05;;;;;;;15.85;100.00;101070.41;7789215;18;20481;-70
2023/05/09 05:36:44;;;;;;;14.80;10.23;;;;;;;15.51;100.00;101005.69;7791708;18;20002;-70
2023/05/09 05:39:11;;;;;;;11.13;9.65;;;;;;;16.26;100.00;101072.00;7788940;18;19994;-70
2023/05/09 05:41:37;;;;;;;15.35;10.52;;;;;;;16.66;100.00;101082.44;7791599;18;20009;-70
2023/05/09 05:44:04;;;;;;;12.88;10.30;;;;;;;16.97;100.00;101063.50;7790328;18;19998;-70
2023/05/09 05:46:30;;;;;;;12.35;11.07;;;;;;;16.96;100.00;101014.94;7791692;18;20021;-70
2023/05/09 05:48:56;;;;;;;12.38;10.80;;;;;;;16.77;100.00;100905.88;7789223;18;20341;-70
2023/05/09 05:51:23;;;;;;;12.20;10.40;;;;;;;17.82;97.90;101032.31;7791107;18;20113;-70
2023/05/09 05:53:49;;;;;;;10.77;9.68;;;;;;;18.03;95.79;101013.03;7789325;18;20006;-70
2023/05/09 05:56:16;;;;;;;15.20;11.02;;;;;;;18.05;92.77;100998.66;7790891;18;20659;-70
2023/05/09 05:58:42;;;;;;;24.48;11.20;;;;;;;17.68;91.60;100980.28;7790527;18;20009;-70
2023/05/09 06:01:08;;;;;;;17.92;11.60;;;;;;;17.70;92.77;100990.75;7790593;18;20646;-70
2023/05/09 06:03:35;;;;;;;14.98;11.27;;;;;;;17.66;93.40;100989.31;7790499;18;20004;-70
2023/05/09 06:06:02;;;;;;;12.93;10.00;;;;;;;17.81;93.55;100996.09;7791757;18;19994;-70
2023/05/09 06:08:28;;;;;;;14.40;11.00;;;;;;;17.51;92.90;100933.81;7787952;18;20057;-70
2023/05/09 06:10:54;;;;;;;12.52;10.05;;;;;;;17.82;91.94;100978.34;7790836;18;20010;-70
2023/05/09 06:13:21;;;;;;;13.20;10.23;;;;;;;17.61;92.05;100925.97;7790530;18;20026;-70
2023/05/09 06:15:47;;;;;;;12.80;10.25;;;;;;;18.04;92.86;100972.22;7790717;18;20002;-70
2023/05/09 06:18:14;;;;;;;13.60;10.00;;;;;;;18.20;92.31;100978.03;7790252;18;20002;-70
2023/05/09 06:20:40;;;;;;;15.50;10.55;;;;;;;18.27;90.89;100959.75;7790998;18;19994;-70
2023/05/09 06:23:07;;;;;;;14.48;11.25;;;;;;;17.86;90.42;100881.59;7789863;18;20014;-70
2023/05/09 06:25:33;;;;;;;14.45;10.65;;;;;;;18.33;90.58;100944.16;7791843;18;20001;-70
2023/05/09 06:28:00;;;;;;;11.20;9.65;;;;;;;18.38;89.74;100940.28;7788255;18;20426;-70
2023/05/09 06:30:26;;;;;;;15.18;11.05;;;;;;;17.94;89.22;100893.28;7790576;18;20104;-70
2023/05/09 06:32:53;;;;;;;13.38;10.25;;;;;;;18.23;90.37;100927.28;7787539;18;19997;-69
2023/05/09 06:35:20;;;;;;;15.85;12.65;;;;;;;18.22;89.85;100903.50;7786526;18;20052;-70
2023/05/09 06:37:47;;;;;;;10.43;9.27;;;;;;;18.31;88.61;100877.00;7788322;18;20014;-69
2023/05/09 06:40:15;;;;;;;15.30;11.05;;;;;;;18.77;87.87;100908.75;7790518;18;20006;-70
2023/05/09 06:42:41;;;;;;;11.32;10.13;;;;;;;18.68;85.95;100859.81;7790803;18;20001;-69
2023/05/09 06:45:08;;;;;;;13.55;10.80;;;;;;;18.83;85.06;100881.69;7790095;18;20009;-69
2023/05/09 06:47:35;;;;;;;15.13;10.18;;;;;;;18.86;85.29;100876.94;7789455;18;20077;-70
2023/05/09 06:50:01;;;;;;;13.50;9.90;;;;;;;18.92;84.28;100865.78;7790059;18;20494;-70
2023/05/09 06:52:28;;;;;;;11.20;10.10;;;;;;;19.02;84.31;100849.88;7791111;18;20009;-70
2023/05/09 06:54:54;;;;;;;21.92;9.48;;;;;;;19.29;83.38;100857.31;7792659;18;20013;-69
2023/05/09 06:57:20;;;;;;;11.43;10.10;;;;;;;19.42;82.39;100857.06;7792928;18;20006;-70
2023/05/09 06:59:47;;;;;;;14.27;9.60;;;;;;;19.57;82.10;100841.59;7793002;18;20489;-70
2023/05/09 07:02:14;;;;;;;11.82;10.23;;;;;;;19.48;80.95;100835.28;7790542;18;20002;-70
2023/05/09 07:04:41;;;;;;;10.32;9.30;;;;;;;19.72;80.63;100828.75;7787272;18;19998;-69
2023/05/09 07:07:07;;;;;;;13.15;9.75;;;;;;;19.84;79.99;100797.53;7791655;18;20375;-69
2023/05/09 07:09:34;;;;;;;14.23;10.07;;;;;;;20.15;77.19;100789.44;7835418;18;20060;-70
2023/05/09 07:12:00;;;;;;;13.52;9.93;;;;;;;20.40;76.43;100782.69;7840865;18;20013;-70
2023/05/09 07:14:27;;;;;;;12.98;8.90;;;;;;;20.51;75.89;100747.88;7796992;18;20053;-70
2023/05/09 07:16:53;;;;;;;11.40;9.20;;;;;;;20.88;74.08;100749.78;7793135;18;20081;-70
2023/05/09 07:19:35;;;;;;;12.65;9.60;;;;;;;20.90;73.72;100735.28;7837098;18;20005;-70
2023/05/09 07:22:01;;;;;;;10.43;9.38;;;;;;;20.78;72.70;100711.63;7799229;18;20046;-71
2023/05/09 07:24:28;;;;;;;11.75;9.50;;;;;;;20.12;72.99;100652.00;7796808;18;20017;-71
2023/05/09 07:26:54;;;;;;;10.82;9.68;;;;;;;20.24;73.93;100706.81;7791656;18;20013;-70
2023/05/09 07:29:21;;;;;;;10.70;9.75;;;;;;;20.46;74.75;100729.63;7789689;18;20061;-71
2023/05/09 07:31:47;;;;;;;11.40;8.57;;;;;;;20.33;73.99;100670.47;7792129;18;20287;-71
2023/05/09 07:34:18;;;;;;;14.57;9.05;;;;;;;20.64;72.80;100688.94;7825395;18;20000;-70
2023/05/09 07:36:45;;;;;;;10.93;8.07;;;;;;;20.63;71.65;100669.44;7838708;18;20028;-70
2023/05/09 07:39:11;;;;;;;10.52;8.10;;;;;;;19.52;71.61;100501.28;7800484;18;20009;-70
2023/05/09 07:41:37;;;;;;;9.00;7.97;;;;;;;20.37;71.48;100615.91;7791732;18;20010;-70
2023/05/09 07:44:04;;;;;;;9.82;8.05;;;;;;;20.88;70.86;100643.91;7789201;18;20000;-70
2023/05/09 07:46:30;;;;;;;9.05;8.15;;;;;;;20.83;69.78;100642.69;7792296;18;20017;-70
2023/05/09 07:48:57;;;;;;;7.88;7.22;;;;;;;20.43;69.38;100548.66;7823422;18;20057;-71
2023/05/09 07:51:23;;;;;;;7.47;6.97;;;;;;;20.89;67.84;100586.91;7840422;18;19998;-71
2023/05/09 07:53:50;;;;;;;7.93;7.13;;;;;;;20.25;66.74;100481.16;7809703;18;19998;-71
2023/05/09 07:56:16;;;;;;;7.55;6.95;;;;;;;20.80;66.58;100557.63;7791693;18;20072;-70
2023/05/09 07:58:43;;;;;;;7.32;6.72;;;;;;;20.37;65.98;100452.47;7820070;18;19998;-70
2023/05/09 08:01:09;;;;;;;6.80;6.35;;;;;;;21.02;64.86;100524.34;7840160;18;20084;-70
2023/05/09 08:03:36;;;;;;;6.85;6.40;;;;;;;21.00;63.73;100489.78;7796890;18;20009;-71
2023/05/09 08:06:03;;;;;;;6.53;6.03;;;;;;;21.02;63.44;100476.31;7841169;18;19993;-69
2023/05/09 08:08:29;;;;;;;7.13;6.63;;;;;;;20.85;63.85;100460.16;7815157;18;20014;-69
2023/05/09 08:10:55;;;;;;;8.43;6.38;;;;;;;20.76;64.10;100442.41;7791853;18;20363;-70
2023/05/09 08:13:22;;;;;;;7.40;6.80;;;;;;;21.34;64.43;100489.06;7798301;18;19990;-69
2023/05/09 08:15:48;;;;;;;7.50;6.90;;;;;;;21.35;63.11;100448.06;7839836;18;20001;-69
2023/05/09 08:18:16;;;;;;;7.35;6.75;;;;;;;21.34;63.43;100465.06;7821266;18;20004;-69
2023/05/09 08:20:42;;;;;;;8.48;6.75;;;;;;;21.57;61.88;100428.03;7792398;18;20000;-69
2023/05/09 08:23:09;;;;;;;6.70;6.28;;;;;;;21.95;60.73;100400.97;7807988;18;20065;-69
2023/05/09 08:25:36;;;;;;;6.68;6.20;;;;;;;21.47;58.57;100259.94;7840229;18;20004;-69
2023/05/09 08:28:02;;;;;;;6.50;6.10;;;;;;;22.27;57.79;100336.97;7825963;18;19994;-70
2023/05/09 08:30:29;;;;;;;6.68;6.18;;;;;;;22.38;57.35;100317.09;7792056;18;20106;-69
2023/05/09 08:32:55;;;;;;;7.00;6.50;;;;;;;22.43;57.66;100304.06;7788715;18;20009;-70
2023/05/09 08:35:22;;;;;;;7.82;7.00;;;;;;;22.42;57.62;100304.22;7790322;18;19998;-69
2023/05/09 08:37:49;;;;;;;7.28;6.72;;;;;;;22.60;57.09;100315.59;7801325;18;20035;-69
2023/05/09 08:40:16;;;;;;;6.75;6.35;;;;;;;22.04;57.73;100245.84;7796900;18;20057;-69
2023/05/09 08:42:44;;;;;;;9.27;6.53;;;;;;;22.47;57.86;100289.34;7831365;18;20006;-69
2023/05/09 08:45:15;;;;;;;6.90;6.20;;;;;;;22.68;58.39;100360.22;7792074;18;19995;-69
2023/05/09 08:47:42;;;;;;;7.03;6.53;;;;;;;23.09;57.57;100358.38;7800049;18;20049;-69
2023/05/09 08:50:10;;;;;;;6.78;6.28;;;;;;;22.66;55.47;100237.34;7797584;18;20116;-69
2023/05/09 08:52:37;;;;;;;6.78;6.32;;;;;;;22.59;56.54;100331.78;7833603;18;20005;-69
2023/05/09 08:55:06;;;;;;;6.68;6.13;;;;;;;22.54;56.53;100308.22;7791372;18;20064;-70
2023/05/09 08:57:36;;;;;;;6.82;6.32;;;;;;;23.16;55.56;100357.72;7797109;18;20574;-69
2023/05/09 09:00:10;;;;;;;6.50;6.00;;;;;;;22.88;54.98;100299.16;7796800;18;19990;-69
2023/05/09 09:02:39;;;;;;;6.78;6.38;;;;;;;23.18;53.79;100307.50;7789766;18;20036;-69
2023/05/09 09:05:06;;;;;;;6.85;6.38;;;;;;;23.28;54.70;100367.88;7791700;18;20085;-70
2023/05/09 09:07:35;;;;;;;6.78;6.32;;;;;;;23.18;54.81;100353.00;7795876;18;20018;-69
2023/05/09 09:10:03;;;;;;;6.82;6.32;;;;;;;23.42;54.43;100358.31;7839467;18;20506;-69
2023/05/09 09:12:30;;;;;;;6.57;6.18;;;;;;;23.57;54.78;100379.84;7793760;18;20005;-69
2023/05/09 09:15:01;;;;;;;6.80;6.28;;;;;;;23.47;55.35;100392.59;7791731;18;19998;-69
2023/05/09 09:17:30;;;;;;;6.75;6.30;;;;;;;23.03;55.64;100331.44;7794450;18;20064;-70
2023/05/09 09:19:59;;;;;;;7.93;6.20;;;;;;;23.18;53.76;100288.75;7839218;18;20001;-69
2023/05/09 09:22:32;;;;;;;6.32;5.95;;;;;;;23.57;54.46;100381.69;7794232;18;20031;-69
2023/05/09 09:25:00;;;;;;;6.43;6.00;;;;;;;24.01;54.35;100411.50;7785611;18;20002;-70
2023/05/09 09:27:27;;;;;;;6.55;6.15;;;;;;;23.65;52.72;100295.91;7794180;18;20006;-70
2023/05/09 09:29:54;;;;;;;6.63;6.22;;;;;;;23.78;51.37;100261.41;7839092;18;20064;-70
2023/05/09 09:32:31;;;;;;;6.75;6.35;;;;;;;23.21;52.01;100264.31;7836630;18;20071;-70
2023/05/09 09:35:09;;;;;;;6.22;5.82;;;;;;;23.55;52.75;100340.84;7789639;18;20068;-70
2023/05/09 09:37:42;;;;;;;9.93;6.20;;;;;;;23.98;52.96;100384.25;7797219;18;20538;-70
2023/05/09 09:40:10;;;;;;;7.50;6.75;;;;;;;24.17;51.75;100332.00;7839080;18;20008;-69
2023/05/09 09:42:45;;;;;;;6.75;6.35;;;;;;;24.17;51.81;100313.25;7831962;18;19999;-69
2023/05/09 09:45:15;;;;;;;6.60;6.20;;;;;;;24.63;50.80;100323.97;7790069;18;20040;-68
2023/05/09 09:47:43;;;;;;;6.70;6.30;;;;;;;23.87;50.39;100217.47;7797866;18;19998;-69
2023/05/09 09:50:11;;;;;;;6.35;5.95;;;;;;;24.33;50.91;100290.84;7838763;18;20068;-71
2023/05/09 09:52:52;;;;;;;5.90;5.60;;;;;;;24.91;50.10;100342.19;7832230;18;20004;-71
2023/05/09 09:55:20;;;;;;;6.32;5.93;;;;;;;24.44;48.70;100221.50;7788322;18;20027;-70
2023/05/09 09:57:47;;;;;;;7.07;6.43;;;;;;;24.33;49.39;100245.25;7800068;18;20065;-69
2023/05/09 10:00:17;;;;;;;6.32;5.93;;;;;;;23.74;51.48;100272.63;7839336;18;20477;-69
2023/05/09 10:02:52;;;;;;;6.82;6.20;;;;;;;24.21;51.63;100336.81;7830382;18;20085;-71
2023/05/09 10:05:22;;;;;;;6.55;5.93;;;;;;;24.16;51.02;100317.78;7789285;18;20622;-71
2023/05/09 10:07:59;;;;;;;6.50;6.03;;;;;;;23.93;50.95;100277.53;7799773;18;20013;-71
2023/05/09 10:10:28;;;;;;;6.55;6.07;;;;;;;23.87;52.40;100372.03;7838856;18;20018;-70
2023/05/09 10:13:01;;;;;;;6.70;6.30;;;;;;;23.42;51.51;100245.81;7825841;18;20061;-70
2023/05/09 10:15:30;;;;;;;6.82;6.35;;;;;;;23.81;52.21;100370.91;7791119;18;20052;-70
2023/05/09 10:18:18;;;;;;;6.63;6.22;;;;;;;23.40;52.58;100317.47;7810667;18;20005;-70
2023/05/09 10:20:46;;;;;;;6.53;6.00;;;;;;;24.16;51.79;100343.75;7832087;18;20739;-70
2023/05/09 10:23:14;;;;;;;6.40;5.90;;;;;;;24.37;51.37;100351.16;7821355;18;19994;-70
2023/05/09 10:25:46;;;;;;;6.50;6.10;;;;;;;24.37;51.31;100351.97;7791755;18;20006;-70
2023/05/09 10:28:18;;;;;;;7.05;6.57;;;;;;;24.58;50.46;100331.75;7788250;18;20008;-70
2023/05/09 10:31:05;;;;;;;6.35;5.95;;;;;;;24.90;49.64;100341.34;7788348;18;20064;-70
2023/05/09 10:33:46;;;;;;;7.35;6.72;;;;;;;24.79;49.66;100312.25;7787487;18;19998;-70
2023/05/09 10:36:15;;;;;;;7.55;7.05;;;;;;;24.92;48.99;100290.13;7785489;18;20001;-70
2023/05/09 10:38:42;;;;;;;6.70;6.30;;;;;;;24.39;49.62;100239.16;7817794;18;20572;-72
2023/05/09 10:41:10;;;;;;;7.38;6.68;;;;;;;24.04;50.16;100242.28;7838540;18;20026;-71
2023/05/09 10:43:36;;;;;;;6.40;6.03;;;;;;;24.63;50.12;100326.66;7811068;18;20024;-70
2023/05/09 10:46:04;;;;;;;6.68;6.28;;;;;;;24.02;49.10;100160.38;7790872;18;20020;-70
2023/05/09 10:48:31;;;;;;;6.82;6.40;;;;;;;24.50;49.90;100254.84;7811884;18;20639;-70
2023/05/09 10:51:00;;;;;;;6.75;6.35;;;;;;;24.08;50.27;100264.22;7795614;18;20873;-70
2023/05/09 10:53:41;;;;;;;6.75;6.35;;;;;;;24.17;50.00;100257.75;7817810;18;20034;-72
2023/05/09 10:56:08;;;;;;;6.45;6.05;;;;;;;24.23;50.36;100240.13;7794262;18;20071;-70
2023/05/09 10:58:39;;;;;;;6.30;6.00;;;;;;;24.50;50.98;100329.97;7788604;18;20014;-71
2023/05/09 11:01:06;;;;;;;7.83;7.33;;;;;;;25.32;49.18;100339.94;7784309;18;20014;-71
2023/05/09 11:03:52;;;;;;;6.30;5.90;;;;;;;25.19;48.76;100288.69;7812955;18;20048;-71
2023/05/09 11:06:44;;;;;;;6.68;6.28;;;;;;;24.96;48.64;100245.84;7836022;18;20017;-71
2023/05/09 11:09:37;;;;;;;6.20;5.90;;;;;;;23.85;49.67;100140.91;7795557;18;20639;-71
2023/05/09 11:12:03;;;;;;;6.50;6.10;;;;;;;23.96;50.54;100212.88;7796948;18;20003;-71
2023/05/09 11:14:37;;;;;;;6.55;6.15;;;;;;;23.84;50.64;100223.16;7794168;18;20016;-71
2023/05/09 11:17:08;;;;;;;6.78;6.32;;;;;;;24.11;51.14;100282.59;7789490;18;20653;-71
2023/05/09 11:19:37;;;;;;;6.90;6.45;;;;;;;24.45;50.29;100273.28;7829890;18;20514;-71